createdAt,value
2022-10-13T00:02:40.366Z,29.50
2022-10-13T00:09:21.884Z,30.20
2022-10-13T00:16:03.693Z,30.30
2022-10-13T00:22:45.325Z,31.00
2022-10-13T00:29:26.961Z,28.30
2022-10-13T00:36:08.501Z,29.00
2022-10-13T00:42:52.912Z,31.30
2022-10-13T00:49:34.484Z,33.20
2022-10-13T00:56:16.304Z,29.40
2022-10-13T01:02:58.051Z,27.90
2022-10-13T01:09:39.403Z,30.60
2022-10-13T01:16:39.449Z,39.00
2022-10-13T01:23:26.879Z,30.90
2022-10-13T01:30:11.524Z,27.80
2022-10-13T01:36:57.156Z,26.70
2022-10-13T01:57:09.296Z,24.30
2022-10-13T02:11:01.935Z,27.40
2022-10-13T02:17:43.159Z,26.00
2022-10-13T02:24:24.715Z,25.30
2022-10-13T02:31:06.340Z,26.60
2022-10-13T02:37:48.106Z,23.60
2022-10-13T02:44:29.916Z,26.60
2022-10-13T02:51:11.523Z,24.50
2022-10-13T02:57:52.944Z,25.00
2022-10-13T03:04:34.464Z,26.50
2022-10-13T03:11:15.802Z,28.00
2022-10-13T03:17:57.214Z,27.30
2022-10-13T03:24:38.932Z,28.40
2022-10-13T03:31:20.453Z,30.20
2022-10-13T03:37:49.667Z,28.10
2022-10-13T03:44:31.180Z,26.50
2022-10-13T03:51:13.044Z,24.10
2022-10-13T03:57:54.809Z,28.80
2022-10-13T04:04:17.814Z,26.00
2022-10-13T04:10:59.232Z,24.50
2022-10-13T04:17:40.544Z,26.70
2022-10-13T04:24:22.492Z,27.20
2022-10-13T04:31:03.964Z,23.70
2022-10-13T04:37:45.455Z,26.40
2022-10-13T04:44:29.806Z,24.10
2022-10-13T04:51:11.294Z,24.50
2022-10-13T04:57:52.850Z,26.20
2022-10-13T05:04:34.547Z,27.00
2022-10-13T05:10:55.648Z,27.80
2022-10-13T05:17:36.942Z,27.80
2022-10-13T05:23:38.892Z,27.50
2022-10-13T05:29:06.916Z,26.00
2022-10-13T05:35:27.961Z,27.80
2022-10-13T05:41:08.997Z,27.50
2022-10-13T05:46:31.511Z,26.20
2022-10-13T05:57:49.739Z,25.70
2022-10-13T06:03:22.414Z,26.70
2022-10-13T06:08:45.693Z,26.20
2022-10-13T06:14:07.838Z,25.90
2022-10-13T06:19:37.044Z,27.90
2022-10-13T06:25:02.328Z,26.30
2022-10-13T06:30:27.740Z,24.90
2022-10-13T06:36:09.118Z,26.20
2022-10-13T06:42:34.749Z,24.40
2022-10-13T06:48:22.759Z,26.80
2022-10-13T06:53:43.860Z,25.00
2022-10-13T06:59:04.833Z,24.60
2022-10-13T07:04:27.499Z,23.70
2022-10-13T07:09:52.083Z,21.50
2022-10-13T07:15:14.279Z,20.70
2022-10-13T07:20:37.226Z,20.70
2022-10-13T07:26:01.393Z,21.50
2022-10-13T07:31:27.044Z,20.40
2022-10-13T07:36:48.868Z,20.40
2022-10-13T07:42:11.239Z,21.80
2022-10-13T07:47:33.052Z,21.40
2022-10-13T07:52:53.703Z,20.50
2022-10-13T07:58:46.915Z,17.90
2022-10-13T08:04:31.003Z,19.90
2022-10-13T08:09:55.575Z,19.90
2022-10-13T08:15:18.934Z,19.70
2022-10-13T08:20:44.354Z,22.00
2022-10-13T08:26:12.267Z,20.40
2022-10-13T08:32:14.182Z,20.60
2022-10-13T08:38:45.963Z,19.80
2022-10-13T08:45:15.783Z,18.20
2022-10-13T08:50:46.030Z,20.80
2022-10-13T08:56:37.476Z,18.40
2022-10-13T09:02:11.467Z,17.00
2022-10-13T09:07:39.383Z,16.50
2022-10-13T09:13:01.969Z,15.50
2022-10-13T09:18:38.359Z,16.50
2022-10-13T09:24:35.401Z,16.50
2022-10-13T09:30:37.671Z,16.90
2022-10-13T09:36:41.154Z,15.80
2022-10-13T09:42:45.974Z,15.20
2022-10-13T09:49:00.643Z,15.20
2022-10-13T10:01:01.850Z,13.60
2022-10-13T10:07:42.873Z,12.40
2022-10-13T10:13:13.304Z,12.20
2022-10-13T10:18:45.788Z,12.10
2022-10-13T10:24:30.489Z,11.40
2022-10-13T10:30:06.498Z,10.20
2022-10-13T10:35:54.612Z,9.20
2022-10-13T10:42:09.338Z,9.10
2022-10-13T10:48:02.893Z,8.50
2022-10-13T10:54:43.899Z,7.70
2022-10-13T11:13:56.257Z,6.00
2022-10-13T11:20:06.865Z,6.90
2022-10-13T11:39:16.319Z,5.50
2022-10-13T11:52:30.043Z,6.70
2022-10-13T12:06:39.730Z,6.90
2022-10-13T12:13:35.618Z,9.30
2022-10-13T12:20:31.970Z,9.10
2022-10-13T12:35:06.553Z,9.10
2022-10-13T12:41:44.290Z,8.30
2022-10-13T13:03:21.156Z,10.60
2022-10-13T13:59:06.187Z,12.90
2022-10-13T14:25:34.233Z,13.30
2022-10-13T15:47:46.701Z,20.00
2022-10-13T16:19:42.825Z,21.70
2022-10-13T16:26:27.246Z,23.40
2022-10-13T16:32:10.046Z,23.10
2022-10-13T16:37:31.864Z,25.70
2022-10-13T16:42:54.113Z,29.00
2022-10-13T16:49:18.201Z,31.90
2022-10-13T16:56:02.914Z,31.80
2022-10-13T17:02:06.049Z,33.20
2022-10-13T17:08:29.763Z,32.20
2022-10-13T17:14:35.805Z,32.70
2022-10-13T17:26:47.288Z,34.20
2022-10-13T17:33:09.395Z,33.20
2022-10-13T17:39:51.845Z,32.00
2022-10-13T17:45:41.159Z,38.80
2022-10-13T17:51:45.581Z,32.40
2022-10-13T17:58:07.733Z,32.90
2022-10-13T18:04:38.106Z,29.40
2022-10-13T18:11:08.710Z,27.10
2022-10-13T18:17:20.831Z,25.50
2022-10-13T18:23:27.420Z,25.30
2022-10-13T18:29:23.682Z,24.30
2022-10-13T18:35:23.392Z,24.00
2022-10-13T18:41:15.040Z,28.00
2022-10-13T18:47:26.854Z,23.00
2022-10-13T18:53:11.765Z,24.00
2022-10-13T18:58:39.397Z,21.80
2022-10-13T19:04:42.527Z,23.10
2022-10-13T19:10:30.664Z,21.90
2022-10-13T19:16:06.354Z,21.20
2022-10-13T19:22:03.772Z,21.90
2022-10-13T19:27:30.947Z,21.30
2022-10-13T19:32:54.475Z,22.90
2022-10-13T19:38:18.146Z,19.80
2022-10-13T19:43:40.360Z,21.20
2022-10-13T19:49:03.684Z,21.20
2022-10-13T19:54:30.183Z,21.50
2022-10-13T19:59:55.237Z,22.30
2022-10-13T20:05:24.643Z,22.20
2022-10-13T20:10:48.785Z,21.10
2022-10-13T20:16:17.365Z,21.10
2022-10-13T20:21:40.130Z,20.10
2022-10-13T20:27:06.492Z,21.20
2022-10-13T20:32:29.263Z,21.60
2022-10-13T20:37:57.453Z,20.50
2022-10-13T20:43:35.142Z,19.60
2022-10-13T20:49:40.159Z,19.20
2022-10-13T20:55:09.546Z,18.90
2022-10-13T21:00:33.403Z,19.50
2022-10-13T21:06:00.276Z,20.90
2022-10-13T21:11:39.861Z,19.80
2022-10-13T21:17:11.024Z,20.00
2022-10-13T21:22:59.931Z,21.00
2022-10-13T21:28:34.042Z,21.50
2022-10-13T21:34:08.109Z,20.60
2022-10-13T21:39:35.593Z,20.50
2022-10-13T21:45:03.525Z,22.30
2022-10-13T21:56:50.770Z,20.90
2022-10-13T22:02:57.701Z,20.20
2022-10-13T22:08:37.695Z,21.00
2022-10-13T22:14:06.947Z,21.40
2022-10-13T22:24:55.539Z,22.10
2022-10-13T22:30:19.743Z,21.90
2022-10-13T22:35:51.198Z,22.40
2022-10-13T22:41:18.316Z,24.60
2022-10-13T22:46:44.009Z,22.80
2022-10-13T22:52:30.112Z,24.20
2022-10-13T22:58:09.339Z,25.60
2022-10-13T23:03:34.243Z,24.80
2022-10-13T23:09:02.441Z,24.60
2022-10-13T23:14:26.307Z,24.40
2022-10-13T23:19:50.281Z,27.00
2022-10-13T23:25:15.072Z,27.40
2022-10-13T23:30:38.888Z,27.30
2022-10-13T23:36:10.524Z,26.50
2022-10-13T23:41:56.834Z,28.40
2022-10-13T23:47:32.622Z,29.70
2022-10-13T23:53:55.412Z,27.20
2022-10-13T23:59:34.163Z,28.00
